createdAt,value
2023-05-12T00:00:02.289Z,14.19
2023-05-12T00:05:03.081Z,14.26
2023-05-12T00:10:02.815Z,14.28
2023-05-12T00:15:02.581Z,14.36
2023-05-12T00:20:02.308Z,14.37
2023-05-12T00:25:03.173Z,14.26
2023-05-12T00:30:03.149Z,14.25
2023-05-12T00:35:02.887Z,14.2
2023-05-12T00:40:03.074Z,14.26
2023-05-12T00:45:02.825Z,14.26
2023-05-12T00:50:02.832Z,14.31
2023-05-12T00:55:03.919Z,14.18
2023-05-12T01:00:03.200Z,14.31
2023-05-12T01:05:03.061Z,14.05
2023-05-12T01:10:03.005Z,13.74
2023-05-12T01:15:03.002Z,13.81
2023-05-12T01:20:02.692Z,13.84
2023-05-12T01:25:02.674Z,13.87
2023-05-12T01:30:02.470Z,13.83
2023-05-12T01:35:02.564Z,13.79
2023-05-12T01:40:02.367Z,13.77
2023-05-12T01:45:02.293Z,13.65
2023-05-12T01:50:03.010Z,13.57
2023-05-12T01:55:03.470Z,13.6
2023-05-12T02:00:02.540Z,13.59
2023-05-12T02:05:02.426Z,13.53
2023-05-12T02:10:02.264Z,13.08
2023-05-12T02:15:03.270Z,12.82
2023-05-12T02:20:03.129Z,12.84
2023-05-12T02:25:02.795Z,12.84
2023-05-12T02:30:02.732Z,12.74
2023-05-12T02:35:02.376Z,12.65
2023-05-12T02:40:02.261Z,12.54
2023-05-12T02:45:02.984Z,12.53
2023-05-12T02:50:02.805Z,12.42
2023-05-12T02:55:03.620Z,12.21
2023-05-12T03:00:02.284Z,12.13
2023-05-12T03:05:02.258Z,12.22
2023-05-12T03:10:03.194Z,12.16
2023-05-12T03:15:02.830Z,12.12
2023-05-12T03:20:02.806Z,12.06
2023-05-12T03:25:02.487Z,12.1
2023-05-12T03:30:02.653Z,12
2023-05-12T03:35:02.271Z,11.95
2023-05-12T03:40:03.024Z,11.98
2023-05-12T03:45:02.421Z,11.4
2023-05-12T03:50:03.088Z,10.7
2023-05-12T03:55:03.399Z,10.3
2023-05-12T04:00:02.676Z,10.75
2023-05-12T04:05:02.720Z,10.86
2023-05-12T04:10:02.407Z,10.83
2023-05-12T04:15:03.114Z,10.9
2023-05-12T04:20:02.933Z,10.77
2023-05-12T04:25:02.627Z,10.99
2023-05-12T04:30:02.521Z,11.38
2023-05-12T04:35:02.275Z,11.57
2023-05-12T04:40:02.975Z,11.73
2023-05-12T04:45:02.836Z,11.91
2023-05-12T04:50:02.504Z,12.22
2023-05-12T04:55:03.682Z,12.36
2023-05-12T05:00:03.007Z,12.74
2023-05-12T05:05:02.757Z,13.1
2023-05-12T05:10:02.687Z,13.3
2023-05-12T05:15:02.518Z,13.53
2023-05-12T05:25:02.659Z,13.67
2023-05-12T05:30:02.373Z,13.83
2023-05-12T05:35:03.072Z,13.83
2023-05-12T05:40:02.827Z,14.44
2023-05-12T05:45:03.027Z,14.6
2023-05-12T05:50:02.641Z,14.54
2023-05-12T05:55:03.233Z,17.26
2023-05-12T06:00:02.603Z,18.78
2023-05-12T06:05:02.638Z,18.34
2023-05-12T06:10:02.447Z,18.9
2023-05-12T06:15:02.293Z,17.83
2023-05-12T06:20:03.074Z,18.5
2023-05-12T06:25:02.846Z,18.3
2023-05-12T06:30:02.558Z,17.6
2023-05-12T06:35:02.264Z,17.72
2023-05-12T06:40:03.028Z,17.74
2023-05-12T06:45:03.001Z,17.84
2023-05-12T06:50:02.818Z,18.14
2023-05-12T06:55:03.924Z,17.92
2023-05-12T07:00:02.291Z,18.26
2023-05-12T07:05:03.023Z,18.45
2023-05-12T07:10:02.901Z,18.61
2023-05-12T07:15:03.040Z,19.68
2023-05-12T07:20:02.759Z,19.3
2023-05-12T07:25:02.676Z,19.3
2023-05-12T07:30:02.570Z,19.82
2023-05-12T07:35:02.289Z,19.16
2023-05-12T07:40:03.040Z,19.05
2023-05-12T07:45:02.797Z,19.7
2023-05-12T07:50:02.463Z,19.82
2023-05-12T07:55:04.140Z,19.5
2023-05-12T08:00:02.412Z,19.41
2023-05-12T08:05:03.095Z,19.57
2023-05-12T08:10:02.985Z,20.63
2023-05-12T08:15:02.767Z,20.09
2023-05-12T08:20:02.541Z,20.25
2023-05-12T08:25:02.951Z,20.83
2023-05-12T08:30:02.216Z,20.29
2023-05-12T08:35:02.937Z,20.9
2023-05-12T08:40:02.752Z,20.36
2023-05-12T08:45:02.993Z,20.81
2023-05-12T08:50:02.669Z,20.5
2023-05-12T08:55:03.879Z,20.27
2023-05-12T09:00:02.267Z,20.77
2023-05-12T09:05:03.018Z,20.3
2023-05-12T09:10:02.760Z,21.03
2023-05-12T09:15:02.632Z,20.89
2023-05-12T09:20:02.560Z,20.98
2023-05-12T09:25:02.248Z,20.9
2023-05-12T09:30:03.046Z,20.62
2023-05-12T09:35:02.949Z,21.11
2023-05-12T09:40:02.746Z,21.58
2023-05-12T09:45:02.950Z,21.24
2023-05-12T09:50:02.567Z,21.39
2023-05-12T09:55:03.459Z,21.16
2023-05-12T10:00:03.951Z,21.93
2023-05-12T10:05:02.781Z,21.67
2023-05-12T10:10:02.512Z,21.74
2023-05-12T10:15:02.632Z,21.56
2023-05-12T10:20:02.327Z,22.09
2023-05-12T10:25:03.087Z,22.48
2023-05-12T10:30:02.824Z,22.67
2023-05-12T10:35:02.622Z,22.48
2023-05-12T10:40:02.439Z,22.09
2023-05-12T10:45:03.153Z,22.36
2023-05-12T10:50:03.026Z,22.24
2023-05-12T10:55:04.349Z,22.72
2023-05-12T11:00:03.947Z,22.34
2023-05-12T11:05:04.998Z,22.67
2023-05-12T11:10:02.998Z,23
2023-05-12T11:15:02.875Z,23.15
2023-05-12T11:20:02.678Z,22.81
2023-05-12T11:25:02.510Z,22.69
2023-05-12T11:30:02.385Z,23.4
2023-05-12T11:35:03.029Z,22.29
2023-05-12T11:40:02.737Z,22.51
2023-05-12T11:45:02.508Z,24.2
2023-05-12T11:50:02.483Z,23.33
2023-05-12T11:55:03.740Z,22.87
2023-05-12T12:00:03.015Z,22.98
2023-05-12T12:05:03.038Z,22.87
2023-05-12T12:10:02.779Z,23.93
2023-05-12T12:15:02.586Z,22.8
2023-05-12T12:20:02.412Z,23
2023-05-12T12:25:03.209Z,23.77
2023-05-12T12:30:02.288Z,23.57
2023-05-12T12:35:03.095Z,21.9
2023-05-12T12:40:02.910Z,22.74
2023-05-12T12:45:02.513Z,22.18
2023-05-12T12:50:02.409Z,23.54
2023-05-12T12:55:04.056Z,23.79
2023-05-12T13:00:02.888Z,23.52
2023-05-12T13:05:02.631Z,22.4
2023-05-12T13:10:02.362Z,21.62
2023-05-12T13:15:02.724Z,23.08
2023-05-12T13:20:02.502Z,22.77
2023-05-12T13:25:02.180Z,22.96
2023-05-12T13:30:02.873Z,23.29
2023-05-12T13:35:02.698Z,23.16
2023-05-12T13:40:02.270Z,23.15
2023-05-12T13:45:02.945Z,23.19
2023-05-12T13:50:02.690Z,23.53
2023-05-12T13:55:03.313Z,23.6
2023-05-12T14:00:02.295Z,23.32
2023-05-12T14:05:03.095Z,23.69
2023-05-12T14:10:02.211Z,23.74
2023-05-12T14:15:19.659Z,23.75
2023-05-12T14:20:03.015Z,23.57
2023-05-12T14:25:02.803Z,23.73
2023-05-12T14:30:02.655Z,23.86
2023-05-12T14:35:02.350Z,23.59
2023-05-12T14:40:03.139Z,23.73
2023-05-12T14:45:02.847Z,23.23
2023-05-12T14:50:02.494Z,23.88
2023-05-12T14:55:03.333Z,23.87
2023-05-12T15:00:03.267Z,23.41
2023-05-12T15:05:02.852Z,24.02
2023-05-12T15:10:02.751Z,23.05
2023-05-12T15:15:02.500Z,23.29
2023-05-12T15:20:02.273Z,22.3
2023-05-12T15:25:02.916Z,21.62
2023-05-12T15:30:02.786Z,21.5
2023-05-12T15:35:02.421Z,21.44
2023-05-12T15:40:02.292Z,22.6
2023-05-12T15:45:03.051Z,22.39
2023-05-12T15:50:02.852Z,22.54
2023-05-12T15:55:03.400Z,22.15
2023-05-12T16:00:02.628Z,22.45
2023-05-12T16:05:03.288Z,21.68
2023-05-12T16:10:02.908Z,21.58
2023-05-12T16:15:02.705Z,21.63
2023-05-12T16:20:02.705Z,21.63
2023-05-12T16:25:02.499Z,21.29
2023-05-12T16:30:02.278Z,21.19
2023-05-12T16:35:03.119Z,21.37
2023-05-12T16:40:03.074Z,21.08
2023-05-12T16:45:02.763Z,20.98
2023-05-12T16:50:02.505Z,20.95
2023-05-12T16:55:03.794Z,20.86
2023-05-12T17:00:02.262Z,21.53
2023-05-12T17:05:02.341Z,21.68
2023-05-12T17:10:02.223Z,21.57
2023-05-12T17:15:07.306Z,20.78
2023-05-12T17:20:02.574Z,20.44
2023-05-12T17:25:03.043Z,20.78
2023-05-12T17:30:02.907Z,20.42
2023-05-12T17:35:02.574Z,20.27
2023-05-12T17:40:02.338Z,20.05
2023-05-12T17:45:03.075Z,19.78
2023-05-12T17:50:02.916Z,20.14
2023-05-12T17:55:03.517Z,20.28
2023-05-12T18:00:02.298Z,20.26
2023-05-12T18:05:03.116Z,20.04
2023-05-12T18:10:02.756Z,19.7
2023-05-12T18:15:02.634Z,19.75
2023-05-12T18:20:02.474Z,19.68
2023-05-12T18:25:02.681Z,19.5
2023-05-12T18:30:03.396Z,18.73
2023-05-12T18:35:02.827Z,18.42
2023-05-12T18:40:02.570Z,18.32
2023-05-12T18:45:02.279Z,18.07
2023-05-12T18:50:03.022Z,18.03
2023-05-12T18:55:03.596Z,18
2023-05-12T19:00:02.842Z,17.73
2023-05-12T19:05:02.572Z,17.55
2023-05-12T19:10:02.259Z,17.44
2023-05-12T19:15:03.145Z,17.28
2023-05-12T19:20:02.341Z,17.2
2023-05-12T19:25:03.157Z,17.05
2023-05-12T19:30:02.943Z,16.94
2023-05-12T19:35:02.585Z,16.78
2023-05-12T19:40:02.499Z,16.63
2023-05-12T19:45:02.363Z,16.67
2023-05-12T19:50:03.023Z,16.6
2023-05-12T19:55:03.266Z,16.52
2023-05-12T20:00:02.634Z,16.4
2023-05-12T20:05:02.255Z,16.21
2023-05-12T20:10:03.039Z,16.18
2023-05-12T20:15:02.796Z,15.99
2023-05-12T20:20:02.738Z,15.73
2023-05-12T20:25:02.465Z,15.62
2023-05-12T20:30:03.206Z,15.18
2023-05-12T20:35:02.911Z,14.91
2023-05-12T20:40:02.702Z,14.46
2023-05-12T20:45:02.507Z,14.22
2023-05-12T20:50:02.448Z,14.87
2023-05-12T20:55:09.226Z,14.92
2023-05-12T21:00:02.491Z,14.88
2023-05-12T21:05:02.259Z,14.58
2023-05-12T21:10:03.121Z,14.55
2023-05-12T21:15:03.012Z,14.52
2023-05-12T21:20:02.814Z,14.54
2023-05-12T21:25:02.506Z,14.45
2023-05-12T21:30:03.232Z,14.34
2023-05-12T21:35:03.040Z,14.29
2023-05-12T21:40:02.712Z,13.58
2023-05-12T21:45:02.597Z,12.72
2023-05-12T21:50:03.684Z,12.07
2023-05-12T21:55:03.979Z,11.58
2023-05-12T22:00:02.480Z,11.58
2023-05-12T22:05:02.672Z,11.78
2023-05-12T22:10:02.351Z,11.91
2023-05-12T22:15:02.532Z,11.99
2023-05-12T22:20:02.302Z,11.96
2023-05-12T22:25:03.015Z,11.87
2023-05-12T22:30:02.929Z,11.92
2023-05-12T22:35:03.223Z,11.85
2023-05-12T22:40:02.472Z,12.16
2023-05-12T22:45:02.783Z,12.29
2023-05-12T22:50:02.491Z,12.5
2023-05-12T22:55:03.057Z,12.43
2023-05-12T23:00:02.241Z,11.81
2023-05-12T23:05:02.934Z,11.52
2023-05-12T23:10:02.369Z,12.12
2023-05-12T23:15:02.920Z,12.65
2023-05-12T23:20:02.703Z,12.66
2023-05-12T23:25:02.814Z,12.6
2023-05-12T23:30:02.520Z,12.45
2023-05-12T23:35:02.289Z,12.35
2023-05-12T23:40:02.938Z,12.25
2023-05-12T23:45:03.208Z,12.07
2023-05-12T23:50:02.794Z,11.98
2023-05-12T23:55:03.447Z,11.62
